sensor_id;sensor_type;location;lat;lon;timestamp;temperature;humidity
38582;DHT22;24349;53.720;10.014;2024-03-02T00:00:50;9.20;99.90
38582;DHT22;24349;53.720;10.014;2024-03-02T00:03:17;9.20;99.90
38582;DHT22;24349;53.720;10.014;2024-03-02T00:05:43;9.20;99.90
38582;DHT22;24349;53.720;10.014;2024-03-02T00:08:09;9.10;99.90
38582;DHT22;24349;53.720;10.014;2024-03-02T00:10:38;9.10;99.90
38582;DHT22;24349;53.720;10.014;2024-03-02T00:13:07;9.10;99.90
38582;DHT22;24349;53.720;10.014;2024-03-02T00:17:59;9.00;99.90
38582;DHT22;24349;53.720;10.014;2024-03-02T00:20:25;9.10;99.90
38582;DHT22;24349;53.720;10.014;2024-03-02T00:23:02;9.00;99.90
38582;DHT22;24349;53.720;10.014;2024-03-02T00:25:40;9.00;99.90
38582;DHT22;24349;53.720;10.014;2024-03-02T00:28:20;9.00;99.90
38582;DHT22;24349;53.720;10.014;2024-03-02T00:33:33;9.00;99.90
38582;DHT22;24349;53.720;10.014;2024-03-02T00:36:07;8.90;99.90
38582;DHT22;24349;53.720;10.014;2024-03-02T00:38:34;8.90;99.90
38582;DHT22;24349;53.720;10.014;2024-03-02T00:41:06;8.90;99.90
38582;DHT22;24349;53.720;10.014;2024-03-02T00:46:15;8.90;99.90
38582;DHT22;24349;53.720;10.014;2024-03-02T00:49:00;8.90;99.90
38582;DHT22;24349;53.720;10.014;2024-03-02T00:51:29;8.90;99.90
38582;DHT22;24349;53.720;10.014;2024-03-02T00:53:58;8.80;99.90
38582;DHT22;24349;53.720;10.014;2024-03-02T00:56:24;8.80;99.90
38582;DHT22;24349;53.720;10.014;2024-03-02T00:58:51;8.80;99.90
38582;DHT22;24349;53.720;10.014;2024-03-02T01:01:17;8.80;99.90
38582;DHT22;24349;53.720;10.014;2024-03-02T01:03:43;8.80;99.90
38582;DHT22;24349;53.720;10.014;2024-03-02T01:06:09;8.80;99.90
38582;DHT22;24349;53.720;10.014;2024-03-02T01:08:35;8.70;99.90
38582;DHT22;24349;53.720;10.014;2024-03-02T01:11:01;8.70;99.90
38582;DHT22;24349;53.720;10.014;2024-03-02T01:13:27;8.70;99.90
38582;DHT22;24349;53.720;10.014;2024-03-02T01:15:53;8.70;99.90
38582;DHT22;24349;53.720;10.014;2024-03-02T01:18:18;8.70;99.90
38582;DHT22;24349;53.720;10.014;2024-03-02T01:20:44;8.70;99.90
38582;DHT22;24349;53.720;10.014;2024-03-02T01:23:10;8.70;99.90
38582;DHT22;24349;53.720;10.014;2024-03-02T01:25:35;8.80;99.90
38582;DHT22;24349;53.720;10.014;2024-03-02T01:28:01;8.70;99.90
38582;DHT22;24349;53.720;10.014;2024-03-02T01:30:27;8.70;99.90
38582;DHT22;24349;53.720;10.014;2024-03-02T01:32:52;8.70;99.90
38582;DHT22;24349;53.720;10.014;2024-03-02T01:35:18;8.70;99.90
38582;DHT22;24349;53.720;10.014;2024-03-02T01:37:43;8.80;99.90
38582;DHT22;24349;53.720;10.014;2024-03-02T01:40:10;8.80;99.90
38582;DHT22;24349;53.720;10.014;2024-03-02T01:42:37;8.80;99.90
38582;DHT22;24349;53.720;10.014;2024-03-02T01:45:08;8.80;99.90
38582;DHT22;24349;53.720;10.014;2024-03-02T01:47:34;8.80;99.90
38582;DHT22;24349;53.720;10.014;2024-03-02T01:50:00;8.80;99.90
38582;DHT22;24349;53.720;10.014;2024-03-02T01:52:26;8.80;99.90
38582;DHT22;24349;53.720;10.014;2024-03-02T01:54:51;8.70;99.90
38582;DHT22;24349;53.720;10.014;2024-03-02T01:57:17;8.70;99.90
38582;DHT22;24349;53.720;10.014;2024-03-02T01:59:43;8.80;99.90
38582;DHT22;24349;53.720;10.014;2024-03-02T02:02:09;8.80;99.90
38582;DHT22;24349;53.720;10.014;2024-03-02T02:04:35;8.70;99.90
38582;DHT22;24349;53.720;10.014;2024-03-02T02:07:01;8.70;99.90
38582;DHT22;24349;53.720;10.014;2024-03-02T02:09:26;8.70;99.90
38582;DHT22;24349;53.720;10.014;2024-03-02T02:11:52;8.70;99.90
38582;DHT22;24349;53.720;10.014;2024-03-02T02:14:18;8.60;99.90
38582;DHT22;24349;53.720;10.014;2024-03-02T02:16:44;8.60;99.90
38582;DHT22;24349;53.720;10.014;2024-03-02T02:19:09;8.60;99.90
38582;DHT22;24349;53.720;10.014;2024-03-02T02:21:35;8.60;99.90
38582;DHT22;24349;53.720;10.014;2024-03-02T02:24:01;8.50;99.90
38582;DHT22;24349;53.720;10.014;2024-03-02T02:26:29;8.50;99.90
38582;DHT22;24349;53.720;10.014;2024-03-02T02:28:55;8.50;99.90
38582;DHT22;24349;53.720;10.014;2024-03-02T02:31:20;8.50;99.90
38582;DHT22;24349;53.720;10.014;2024-03-02T02:33:46;8.50;99.90
38582;DHT22;24349;53.720;10.014;2024-03-02T02:36:11;8.40;99.90
38582;DHT22;24349;53.720;10.014;2024-03-02T02:38:45;8.40;99.90
38582;DHT22;24349;53.720;10.014;2024-03-02T02:41:12;8.40;99.90
38582;DHT22;24349;53.720;10.014;2024-03-02T02:43:38;8.40;1.00
38582;DHT22;24349;53.720;10.014;2024-03-02T02:46:33;8.30;38.30
38582;DHT22;24349;53.720;10.014;2024-03-02T02:48:59;8.30;94.50
38582;DHT22;24349;53.720;10.014;2024-03-02T02:51:24;8.20;99.90
38582;DHT22;24349;53.720;10.014;2024-03-02T02:53:51;8.30;99.90
38582;DHT22;24349;53.720;10.014;2024-03-02T02:56:16;8.30;99.90
38582;DHT22;24349;53.720;10.014;2024-03-02T02:58:42;8.30;99.90
38582;DHT22;24349;53.720;10.014;2024-03-02T03:01:08;8.30;99.90
38582;DHT22;24349;53.720;10.014;2024-03-02T03:03:34;8.30;99.90
38582;DHT22;24349;53.720;10.014;2024-03-02T03:05:59;8.30;99.90
38582;DHT22;24349;53.720;10.014;2024-03-02T03:08:25;8.30;99.90
38582;DHT22;24349;53.720;10.014;2024-03-02T03:10:50;8.30;99.90
38582;DHT22;24349;53.720;10.014;2024-03-02T03:13:16;8.30;99.90
38582;DHT22;24349;53.720;10.014;2024-03-02T03:15:42;8.30;99.90
38582;DHT22;24349;53.720;10.014;2024-03-02T03:18:08;8.30;99.90
38582;DHT22;24349;53.720;10.014;2024-03-02T03:20:35;8.30;99.90
38582;DHT22;24349;53.720;10.014;2024-03-02T03:23:01;8.40;99.90
38582;DHT22;24349;53.720;10.014;2024-03-02T03:25:27;8.30;99.90
38582;DHT22;24349;53.720;10.014;2024-03-02T03:27:52;8.30;99.90
38582;DHT22;24349;53.720;10.014;2024-03-02T03:30:18;8.30;99.90
38582;DHT22;24349;53.720;10.014;2024-03-02T03:32:44;8.30;99.90
38582;DHT22;24349;53.720;10.014;2024-03-02T03:35:09;8.30;99.90
38582;DHT22;24349;53.720;10.014;2024-03-02T03:37:35;8.30;99.90
38582;DHT22;24349;53.720;10.014;2024-03-02T03:40:05;8.30;99.90
38582;DHT22;24349;53.720;10.014;2024-03-02T03:42:35;8.30;99.90
38582;DHT22;24349;53.720;10.014;2024-03-02T03:45:01;8.30;99.90
38582;DHT22;24349;53.720;10.014;2024-03-02T03:47:27;8.30;99.90
38582;DHT22;24349;53.720;10.014;2024-03-02T03:49:53;8.30;99.90
38582;DHT22;24349;53.720;10.014;2024-03-02T03:52:18;8.30;99.90
38582;DHT22;24349;53.720;10.014;2024-03-02T03:54:44;8.30;99.90
38582;DHT22;24349;53.720;10.014;2024-03-02T03:57:10;8.20;99.90
38582;DHT22;24349;53.720;10.014;2024-03-02T03:59:35;8.20;99.90
38582;DHT22;24349;53.720;10.014;2024-03-02T04:02:03;8.20;99.90
38582;DHT22;24349;53.720;10.014;2024-03-02T04:04:28;8.10;99.90
38582;DHT22;24349;53.720;10.014;2024-03-02T04:06:54;8.10;99.90
38582;DHT22;24349;53.720;10.014;2024-03-02T04:09:20;8.00;99.90
38582;DHT22;24349;53.720;10.014;2024-03-02T04:11:45;8.00;99.90
38582;DHT22;24349;53.720;10.014;2024-03-02T04:14:11;8.10;99.90
38582;DHT22;24349;53.720;10.014;2024-03-02T04:16:38;8.10;99.90
38582;DHT22;24349;53.720;10.014;2024-03-02T04:19:04;8.10;99.90
38582;DHT22;24349;53.720;10.014;2024-03-02T04:21:30;8.10;99.90
38582;DHT22;24349;53.720;10.014;2024-03-02T04:23:55;8.10;99.90
38582;DHT22;24349;53.720;10.014;2024-03-02T04:26:25;8.10;99.90
38582;DHT22;24349;53.720;10.014;2024-03-02T04:28:51;8.10;99.90
38582;DHT22;24349;53.720;10.014;2024-03-02T04:31:17;8.10;99.90
38582;DHT22;24349;53.720;10.014;2024-03-02T04:33:42;8.10;99.90
38582;DHT22;24349;53.720;10.014;2024-03-02T04:36:08;8.10;99.90
38582;DHT22;24349;53.720;10.014;2024-03-02T04:38:38;8.10;99.90
38582;DHT22;24349;53.720;10.014;2024-03-02T04:41:04;8.10;99.90
38582;DHT22;24349;53.720;10.014;2024-03-02T04:43:31;8.10;99.90
38582;DHT22;24349;53.720;10.014;2024-03-02T04:45:58;8.20;99.90
38582;DHT22;24349;53.720;10.014;2024-03-02T04:48:23;8.10;99.90
38582;DHT22;24349;53.720;10.014;2024-03-02T04:50:49;8.20;99.90
38582;DHT22;24349;53.720;10.014;2024-03-02T04:53:14;8.10;99.90
38582;DHT22;24349;53.720;10.014;2024-03-02T04:55:40;8.10;99.90
38582;DHT22;24349;53.720;10.014;2024-03-02T04:58:06;8.10;99.90
38582;DHT22;24349;53.720;10.014;2024-03-02T05:00:32;8.10;99.90
38582;DHT22;24349;53.720;10.014;2024-03-02T05:02:58;8.10;99.90
38582;DHT22;24349;53.720;10.014;2024-03-02T05:05:23;8.10;99.90
38582;DHT22;24349;53.720;10.014;2024-03-02T05:07:49;8.10;99.90
38582;DHT22;24349;53.720;10.014;2024-03-02T05:10:15;8.10;99.90
38582;DHT22;24349;53.720;10.014;2024-03-02T05:12:41;8.10;99.90
38582;DHT22;24349;53.720;10.014;2024-03-02T05:15:12;8.00;99.90
38582;DHT22;24349;53.720;10.014;2024-03-02T05:17:42;8.00;99.90
38582;DHT22;24349;53.720;10.014;2024-03-02T05:20:11;8.00;99.90
38582;DHT22;24349;53.720;10.014;2024-03-02T05:22:37;8.00;99.90
38582;DHT22;24349;53.720;10.014;2024-03-02T05:25:04;8.00;99.90
38582;DHT22;24349;53.720;10.014;2024-03-02T05:27:30;8.00;99.90
38582;DHT22;24349;53.720;10.014;2024-03-02T05:29:56;8.00;99.90
38582;DHT22;24349;53.720;10.014;2024-03-02T05:32:23;8.00;99.90
38582;DHT22;24349;53.720;10.014;2024-03-02T05:34:48;8.00;99.90
38582;DHT22;24349;53.720;10.014;2024-03-02T05:37:16;8.00;99.90
38582;DHT22;24349;53.720;10.014;2024-03-02T05:39:42;8.00;99.90
38582;DHT22;24349;53.720;10.014;2024-03-02T05:42:08;7.90;99.90
38582;DHT22;24349;53.720;10.014;2024-03-02T05:44:37;7.90;99.90
38582;DHT22;24349;53.720;10.014;2024-03-02T05:47:03;7.90;99.90
38582;DHT22;24349;53.720;10.014;2024-03-02T05:49:29;7.90;99.90
38582;DHT22;24349;53.720;10.014;2024-03-02T05:51:55;7.90;99.90
38582;DHT22;24349;53.720;10.014;2024-03-02T05:54:21;7.90;99.90
38582;DHT22;24349;53.720;10.014;2024-03-02T05:56:47;7.90;99.90
38582;DHT22;24349;53.720;10.014;2024-03-02T05:59:12;7.80;99.90
38582;DHT22;24349;53.720;10.014;2024-03-02T06:01:39;7.80;99.90
38582;DHT22;24349;53.720;10.014;2024-03-02T06:04:05;7.90;99.90
38582;DHT22;24349;53.720;10.014;2024-03-02T06:06:31;7.80;99.90
38582;DHT22;24349;53.720;10.014;2024-03-02T06:08:59;7.80;99.90
38582;DHT22;24349;53.720;10.014;2024-03-02T06:11:25;7.80;99.90
38582;DHT22;24349;53.720;10.014;2024-03-02T06:13:50;7.80;99.90
38582;DHT22;24349;53.720;10.014;2024-03-02T06:16:16;7.90;99.90
38582;DHT22;24349;53.720;10.014;2024-03-02T06:18:42;7.90;99.90
38582;DHT22;24349;53.720;10.014;2024-03-02T06:21:07;7.80;99.90
38582;DHT22;24349;53.720;10.014;2024-03-02T06:23:33;7.80;99.90
38582;DHT22;24349;53.720;10.014;2024-03-02T06:26:00;7.70;99.90
38582;DHT22;24349;53.720;10.014;2024-03-02T06:28:25;7.80;99.90
38582;DHT22;24349;53.720;10.014;2024-03-02T06:30:51;7.80;99.90
38582;DHT22;24349;53.720;10.014;2024-03-02T06:33:17;7.90;99.90
38582;DHT22;24349;53.720;10.014;2024-03-02T06:35:42;7.90;99.90
38582;DHT22;24349;53.720;10.014;2024-03-02T06:38:08;7.90;99.90
38582;DHT22;24349;53.720;10.014;2024-03-02T06:40:34;7.80;99.90
38582;DHT22;24349;53.720;10.014;2024-03-02T06:42:59;7.90;99.90
38582;DHT22;24349;53.720;10.014;2024-03-02T06:45:25;7.80;99.90
38582;DHT22;24349;53.720;10.014;2024-03-02T06:47:50;7.80;99.90
38582;DHT22;24349;53.720;10.014;2024-03-02T06:50:16;7.70;99.90
38582;DHT22;24349;53.720;10.014;2024-03-02T06:52:42;7.80;99.90
38582;DHT22;24349;53.720;10.014;2024-03-02T06:55:09;7.80;99.90
38582;DHT22;24349;53.720;10.014;2024-03-02T06:57:34;7.80;99.90
38582;DHT22;24349;53.720;10.014;2024-03-02T07:00:00;7.70;99.90
38582;DHT22;24349;53.720;10.014;2024-03-02T07:02:25;7.80;99.90
38582;DHT22;24349;53.720;10.014;2024-03-02T07:04:53;7.80;99.90
38582;DHT22;24349;53.720;10.014;2024-03-02T07:07:18;7.80;99.90
38582;DHT22;24349;53.720;10.014;2024-03-02T07:09:44;7.90;99.90
38582;DHT22;24349;53.720;10.014;2024-03-02T07:12:09;7.90;99.90
38582;DHT22;24349;53.720;10.014;2024-03-02T07:14:35;7.90;99.90
38582;DHT22;24349;53.720;10.014;2024-03-02T07:17:19;8.00;99.90
38582;DHT22;24349;53.720;10.014;2024-03-02T07:19:45;8.00;99.90
38582;DHT22;24349;53.720;10.014;2024-03-02T07:22:10;8.10;99.90
38582;DHT22;24349;53.720;10.014;2024-03-02T07:24:43;8.10;99.90
38582;DHT22;24349;53.720;10.014;2024-03-02T07:27:12;8.20;99.90
38582;DHT22;24349;53.720;10.014;2024-03-02T07:29:39;8.30;99.90
38582;DHT22;24349;53.720;10.014;2024-03-02T07:32:05;8.30;99.90
38582;DHT22;24349;53.720;10.014;2024-03-02T07:34:31;8.30;99.90
38582;DHT22;24349;53.720;10.014;2024-03-02T07:36:57;8.40;99.90
38582;DHT22;24349;53.720;10.014;2024-03-02T07:39:23;8.40;99.90
38582;DHT22;24349;53.720;10.014;2024-03-02T07:41:49;8.50;99.90
38582;DHT22;24349;53.720;10.014;2024-03-02T07:44:15;8.50;99.90
38582;DHT22;24349;53.720;10.014;2024-03-02T07:46:43;8.60;99.90
38582;DHT22;24349;53.720;10.014;2024-03-02T07:49:09;8.60;99.90
38582;DHT22;24349;53.720;10.014;2024-03-02T07:51:35;8.70;99.90
38582;DHT22;24349;53.720;10.014;2024-03-02T07:54:01;8.80;99.90
38582;DHT22;24349;53.720;10.014;2024-03-02T07:56:27;8.80;99.90
38582;DHT22;24349;53.720;10.014;2024-03-02T07:58:53;8.90;99.90
38582;DHT22;24349;53.720;10.014;2024-03-02T08:01:18;8.90;99.90
38582;DHT22;24349;53.720;10.014;2024-03-02T08:03:44;8.90;99.90
38582;DHT22;24349;53.720;10.014;2024-03-02T08:06:18;8.90;99.90
38582;DHT22;24349;53.720;10.014;2024-03-02T08:08:46;8.90;99.90
38582;DHT22;24349;53.720;10.014;2024-03-02T08:11:11;8.90;99.90
38582;DHT22;24349;53.720;10.014;2024-03-02T08:13:38;9.00;99.90
38582;DHT22;24349;53.720;10.014;2024-03-02T08:16:04;9.00;99.90
38582;DHT22;24349;53.720;10.014;2024-03-02T08:18:32;9.20;99.90
38582;DHT22;24349;53.720;10.014;2024-03-02T08:20:58;9.30;99.90
38582;DHT22;24349;53.720;10.014;2024-03-02T08:23:24;9.30;99.90
38582;DHT22;24349;53.720;10.014;2024-03-02T08:25:49;9.40;99.90
38582;DHT22;24349;53.720;10.014;2024-03-02T08:28:15;9.50;99.90
38582;DHT22;24349;53.720;10.014;2024-03-02T08:30:41;9.50;99.90
38582;DHT22;24349;53.720;10.014;2024-03-02T08:33:06;9.40;99.90
38582;DHT22;24349;53.720;10.014;2024-03-02T08:35:32;9.50;99.90
38582;DHT22;24349;53.720;10.014;2024-03-02T08:38:02;9.50;99.90
38582;DHT22;24349;53.720;10.014;2024-03-02T08:40:28;9.50;99.90
38582;DHT22;24349;53.720;10.014;2024-03-02T08:42:54;9.60;99.90
38582;DHT22;24349;53.720;10.014;2024-03-02T08:45:19;9.60;99.90
38582;DHT22;24349;53.720;10.014;2024-03-02T08:47:46;9.60;99.90
38582;DHT22;24349;53.720;10.014;2024-03-02T08:50:15;9.60;99.90
38582;DHT22;24349;53.720;10.014;2024-03-02T08:52:40;9.60;99.90
38582;DHT22;24349;53.720;10.014;2024-03-02T08:55:06;9.60;99.90
38582;DHT22;24349;53.720;10.014;2024-03-02T08:57:33;9.70;99.90
38582;DHT22;24349;53.720;10.014;2024-03-02T08:59:59;9.80;99.90
38582;DHT22;24349;53.720;10.014;2024-03-02T09:02:25;9.90;99.90
38582;DHT22;24349;53.720;10.014;2024-03-02T09:04:51;10.00;99.90
38582;DHT22;24349;53.720;10.014;2024-03-02T09:07:16;10.00;99.90
38582;DHT22;24349;53.720;10.014;2024-03-02T09:09:42;10.30;99.90
38582;DHT22;24349;53.720;10.014;2024-03-02T09:12:08;10.20;99.90
38582;DHT22;24349;53.720;10.014;2024-03-02T09:14:35;10.60;99.90
38582;DHT22;24349;53.720;10.014;2024-03-02T09:17:02;10.70;99.90
38582;DHT22;24349;53.720;10.014;2024-03-02T09:19:27;10.90;99.90
38582;DHT22;24349;53.720;10.014;2024-03-02T09:21:53;10.80;99.90
38582;DHT22;24349;53.720;10.014;2024-03-02T09:24:21;10.90;99.90
38582;DHT22;24349;53.720;10.014;2024-03-02T09:26:46;11.40;99.90
38582;DHT22;24349;53.720;10.014;2024-03-02T09:29:12;11.90;99.90
38582;DHT22;24349;53.720;10.014;2024-03-02T09:31:41;11.90;99.90
38582;DHT22;24349;53.720;10.014;2024-03-02T09:34:07;12.30;99.90
38582;DHT22;24349;53.720;10.014;2024-03-02T09:36:33;12.70;99.90
38582;DHT22;24349;53.720;10.014;2024-03-02T09:38:58;12.40;99.90
38582;DHT22;24349;53.720;10.014;2024-03-02T09:41:24;12.60;99.90
38582;DHT22;24349;53.720;10.014;2024-03-02T09:43:50;12.60;99.90
38582;DHT22;24349;53.720;10.014;2024-03-02T09:46:16;12.60;99.90
38582;DHT22;24349;53.720;10.014;2024-03-02T09:48:44;12.40;99.90
38582;DHT22;24349;53.720;10.014;2024-03-02T09:51:10;12.40;99.90
38582;DHT22;24349;53.720;10.014;2024-03-02T09:53:36;12.30;99.90
38582;DHT22;24349;53.720;10.014;2024-03-02T09:56:02;12.50;99.90
38582;DHT22;24349;53.720;10.014;2024-03-02T09:58:29;13.30;99.90
38582;DHT22;24349;53.720;10.014;2024-03-02T10:00:54;13.10;99.90
38582;DHT22;24349;53.720;10.014;2024-03-02T10:03:20;13.50;99.90
38582;DHT22;24349;53.720;10.014;2024-03-02T10:05:46;14.10;99.90
38582;DHT22;24349;53.720;10.014;2024-03-02T10:08:12;14.10;99.90
38582;DHT22;24349;53.720;10.014;2024-03-02T10:10:39;14.20;99.90
38582;DHT22;24349;53.720;10.014;2024-03-02T10:13:12;14.70;99.90
38582;DHT22;24349;53.720;10.014;2024-03-02T10:15:39;15.00;99.90
38582;DHT22;24349;53.720;10.014;2024-03-02T10:18:09;14.70;99.90
38582;DHT22;24349;53.720;10.014;2024-03-02T10:20:36;15.30;99.90
38582;DHT22;24349;53.720;10.014;2024-03-02T10:23:11;15.00;99.90
38582;DHT22;24349;53.720;10.014;2024-03-02T10:25:37;15.30;99.90
38582;DHT22;24349;53.720;10.014;2024-03-02T10:28:03;15.40;99.90
38582;DHT22;24349;53.720;10.014;2024-03-02T10:30:31;15.70;99.90
38582;DHT22;24349;53.720;10.014;2024-03-02T10:32:57;15.70;99.90
38582;DHT22;24349;53.720;10.014;2024-03-02T10:35:23;16.70;99.90
38582;DHT22;24349;53.720;10.014;2024-03-02T10:37:49;16.70;99.90
38582;DHT22;24349;53.720;10.014;2024-03-02T10:40:15;16.30;99.90
38582;DHT22;24349;53.720;10.014;2024-03-02T10:42:42;16.20;99.90
38582;DHT22;24349;53.720;10.014;2024-03-02T10:45:09;16.40;99.90
38582;DHT22;24349;53.720;10.014;2024-03-02T10:47:38;16.10;99.90
38582;DHT22;24349;53.720;10.014;2024-03-02T10:50:05;15.80;99.90
38582;DHT22;24349;53.720;10.014;2024-03-02T10:52:42;15.60;99.90
38582;DHT22;24349;53.720;10.014;2024-03-02T10:55:09;15.30;99.90
38582;DHT22;24349;53.720;10.014;2024-03-02T10:57:45;14.90;99.90
38582;DHT22;24349;53.720;10.014;2024-03-02T11:00:14;14.50;99.90
38582;DHT22;24349;53.720;10.014;2024-03-02T11:02:55;14.20;99.90
38582;DHT22;24349;53.720;10.014;2024-03-02T11:05:31;13.90;99.90
38582;DHT22;24349;53.720;10.014;2024-03-02T11:08:01;13.70;99.90
38582;DHT22;24349;53.720;10.014;2024-03-02T11:10:51;13.80;99.90
38582;DHT22;24349;53.720;10.014;2024-03-02T11:13:24;13.80;99.90
38582;DHT22;24349;53.720;10.014;2024-03-02T11:15:55;13.80;99.90
38582;DHT22;24349;53.720;10.014;2024-03-02T11:18:25;13.90;99.90
38582;DHT22;24349;53.720;10.014;2024-03-02T11:20:51;13.80;99.90
38582;DHT22;24349;53.720;10.014;2024-03-02T11:23:17;13.70;99.90
38582;DHT22;24349;53.720;10.014;2024-03-02T11:25:43;13.80;99.90
38582;DHT22;24349;53.720;10.014;2024-03-02T11:28:08;13.70;99.90
38582;DHT22;24349;53.720;10.014;2024-03-02T11:33:07;13.20;99.90
38582;DHT22;24349;53.720;10.014;2024-03-02T11:35:33;13.00;99.90
38582;DHT22;24349;53.720;10.014;2024-03-02T11:38:01;12.90;99.90
38582;DHT22;24349;53.720;10.014;2024-03-02T11:40:29;12.90;99.90
38582;DHT22;24349;53.720;10.014;2024-03-02T11:42:55;12.90;99.90
38582;DHT22;24349;53.720;10.014;2024-03-02T11:45:25;12.80;99.90
38582;DHT22;24349;53.720;10.014;2024-03-02T11:47:53;13.00;99.90
38582;DHT22;24349;53.720;10.014;2024-03-02T11:50:42;13.00;99.90
38582;DHT22;24349;53.720;10.014;2024-03-02T11:53:10;12.90;99.90
38582;DHT22;24349;53.720;10.014;2024-03-02T11:55:36;13.10;99.90
38582;DHT22;24349;53.720;10.014;2024-03-02T11:58:03;13.10;99.90
38582;DHT22;24349;53.720;10.014;2024-03-02T12:00:29;12.90;99.90
38582;DHT22;24349;53.720;10.014;2024-03-02T12:03:09;12.80;99.90
38582;DHT22;24349;53.720;10.014;2024-03-02T12:05:35;12.90;99.90
38582;DHT22;24349;53.720;10.014;2024-03-02T12:08:03;12.90;99.90
38582;DHT22;24349;53.720;10.014;2024-03-02T12:10:30;12.80;99.90
38582;DHT22;24349;53.720;10.014;2024-03-02T12:13:02;12.90;99.90
38582;DHT22;24349;53.720;10.014;2024-03-02T12:17:59;12.90;99.90
38582;DHT22;24349;53.720;10.014;2024-03-02T12:20:27;12.90;99.90
38582;DHT22;24349;53.720;10.014;2024-03-02T12:22:55;12.70;99.90
38582;DHT22;24349;53.720;10.014;2024-03-02T12:25:22;12.70;99.90
38582;DHT22;24349;53.720;10.014;2024-03-02T12:27:50;12.90;99.90
38582;DHT22;24349;53.720;10.014;2024-03-02T12:30:20;12.90;99.90
38582;DHT22;24349;53.720;10.014;2024-03-02T12:32:46;13.00;99.90
38582;DHT22;24349;53.720;10.014;2024-03-02T12:35:12;13.10;99.90
38582;DHT22;24349;53.720;10.014;2024-03-02T12:37:51;13.30;99.90
38582;DHT22;24349;53.720;10.014;2024-03-02T12:40:19;13.40;99.90
38582;DHT22;24349;53.720;10.014;2024-03-02T12:42:45;13.40;99.90
38582;DHT22;24349;53.720;10.014;2024-03-02T12:45:12;13.50;99.90
38582;DHT22;24349;53.720;10.014;2024-03-02T12:47:40;13.30;99.90
38582;DHT22;24349;53.720;10.014;2024-03-02T12:50:06;13.40;99.90
38582;DHT22;24349;53.720;10.014;2024-03-02T12:52:32;13.50;99.90
38582;DHT22;24349;53.720;10.014;2024-03-02T12:55:00;13.40;99.90
38582;DHT22;24349;53.720;10.014;2024-03-02T12:57:26;13.50;99.90
38582;DHT22;24349;53.720;10.014;2024-03-02T12:59:57;13.50;99.90
38582;DHT22;24349;53.720;10.014;2024-03-02T13:02:23;13.40;99.90
38582;DHT22;24349;53.720;10.014;2024-03-02T13:04:55;13.30;99.90
38582;DHT22;24349;53.720;10.014;2024-03-02T13:07:21;13.30;99.90
38582;DHT22;24349;53.720;10.014;2024-03-02T13:09:50;13.40;99.90
38582;DHT22;24349;53.720;10.014;2024-03-02T13:12:17;13.40;99.90
38582;DHT22;24349;53.720;10.014;2024-03-02T13:14:43;13.30;99.90
38582;DHT22;24349;53.720;10.014;2024-03-02T13:17:09;13.20;99.90
38582;DHT22;24349;53.720;10.014;2024-03-02T13:19:35;13.40;99.90
38582;DHT22;24349;53.720;10.014;2024-03-02T13:22:01;13.30;99.90
38582;DHT22;24349;53.720;10.014;2024-03-02T13:24:30;13.30;99.90
38582;DHT22;24349;53.720;10.014;2024-03-02T13:26:56;13.20;99.90
38582;DHT22;24349;53.720;10.014;2024-03-02T13:29:23;13.30;99.90
38582;DHT22;24349;53.720;10.014;2024-03-02T13:31:49;13.10;99.90
38582;DHT22;24349;53.720;10.014;2024-03-02T13:34:14;13.00;99.90
38582;DHT22;24349;53.720;10.014;2024-03-02T13:36:41;13.10;99.90
38582;DHT22;24349;53.720;10.014;2024-03-02T13:39:07;13.10;99.90
38582;DHT22;24349;53.720;10.014;2024-03-02T13:41:35;13.30;99.90
38582;DHT22;24349;53.720;10.014;2024-03-02T13:44:01;13.40;99.90
38582;DHT22;24349;53.720;10.014;2024-03-02T13:46:27;13.50;99.90
38582;DHT22;24349;53.720;10.014;2024-03-02T13:48:54;13.50;99.90
38582;DHT22;24349;53.720;10.014;2024-03-02T13:51:19;13.80;99.90
38582;DHT22;24349;53.720;10.014;2024-03-02T13:53:45;13.80;99.90
38582;DHT22;24349;53.720;10.014;2024-03-02T13:56:11;14.60;99.90
38582;DHT22;24349;53.720;10.014;2024-03-02T13:58:37;15.40;99.90
38582;DHT22;24349;53.720;10.014;2024-03-02T14:01:03;16.00;99.90
38582;DHT22;24349;53.720;10.014;2024-03-02T14:03:30;16.70;99.90
38582;DHT22;24349;53.720;10.014;2024-03-02T14:05:55;17.10;99.90
38582;DHT22;24349;53.720;10.014;2024-03-02T14:08:21;17.40;99.90
38582;DHT22;24349;53.720;10.014;2024-03-02T14:10:47;17.20;99.90
38582;DHT22;24349;53.720;10.014;2024-03-02T14:13:12;17.30;99.90
38582;DHT22;24349;53.720;10.014;2024-03-02T14:15:38;16.90;99.90
38582;DHT22;24349;53.720;10.014;2024-03-02T14:18:05;16.60;99.90
38582;DHT22;24349;53.720;10.014;2024-03-02T14:20:31;17.00;99.90
38582;DHT22;24349;53.720;10.014;2024-03-02T14:22:58;17.40;99.90
38582;DHT22;24349;53.720;10.014;2024-03-02T14:25:25;17.80;99.90
38582;DHT22;24349;53.720;10.014;2024-03-02T14:27:50;17.80;99.90
38582;DHT22;24349;53.720;10.014;2024-03-02T14:30:16;18.10;99.90
38582;DHT22;24349;53.720;10.014;2024-03-02T14:32:42;18.30;99.90
38582;DHT22;24349;53.720;10.014;2024-03-02T14:35:08;18.40;99.90
38582;DHT22;24349;53.720;10.014;2024-03-02T14:37:37;17.80;99.90
38582;DHT22;24349;53.720;10.014;2024-03-02T14:40:03;16.90;99.90
38582;DHT22;24349;53.720;10.014;2024-03-02T14:42:32;16.00;99.90
38582;DHT22;24349;53.720;10.014;2024-03-02T14:44:57;15.70;99.90
38582;DHT22;24349;53.720;10.014;2024-03-02T14:47:23;15.90;99.90
38582;DHT22;24349;53.720;10.014;2024-03-02T14:49:50;15.90;99.90
38582;DHT22;24349;53.720;10.014;2024-03-02T14:52:15;16.00;99.90
38582;DHT22;24349;53.720;10.014;2024-03-02T14:54:42;16.20;99.90
38582;DHT22;24349;53.720;10.014;2024-03-02T14:57:08;15.80;99.90
38582;DHT22;24349;53.720;10.014;2024-03-02T14:59:34;15.40;99.90
38582;DHT22;24349;53.720;10.014;2024-03-02T15:01:59;15.10;99.90
38582;DHT22;24349;53.720;10.014;2024-03-02T15:04:25;15.00;99.90
38582;DHT22;24349;53.720;10.014;2024-03-02T15:06:52;14.60;99.90
38582;DHT22;24349;53.720;10.014;2024-03-02T15:09:18;14.40;99.90
38582;DHT22;24349;53.720;10.014;2024-03-02T15:11:45;14.20;99.90
38582;DHT22;24349;53.720;10.014;2024-03-02T15:14:11;14.00;99.90
38582;DHT22;24349;53.720;10.014;2024-03-02T15:16:37;13.80;99.90
38582;DHT22;24349;53.720;10.014;2024-03-02T15:19:02;13.60;99.90
38582;DHT22;24349;53.720;10.014;2024-03-02T15:21:28;13.70;99.90
38582;DHT22;24349;53.720;10.014;2024-03-02T15:23:54;13.70;99.90
38582;DHT22;24349;53.720;10.014;2024-03-02T15:26:20;13.80;99.90
38582;DHT22;24349;53.720;10.014;2024-03-02T15:28:45;13.80;99.90
38582;DHT22;24349;53.720;10.014;2024-03-02T15:31:11;13.90;99.90
38582;DHT22;24349;53.720;10.014;2024-03-02T15:33:36;14.20;99.90
38582;DHT22;24349;53.720;10.014;2024-03-02T15:36:02;14.70;99.90